Time;durP1;ratioP1;P1;durP2;ratioP2;P2;SDS_P1;SDS_P2;PMS_P1;PMS_P2;Temp;Humidity;BMP_temperature;BMP_pressure;BME280_temperature;BME280_humidity;BME280_pressure;Samples;Min_cycle;Max_cycle;Signal;HPM_P1;HPM_P2
2022/04/13 00:00:20;;;;;;;4.83;1.70;;;16.70;54.00;;;;;;5049314;28;20025;-85
2022/04/13 00:02:46;;;;;;;3.65;1.50;;;16.70;54.30;;;;;;5035782;28;20691;-85
2022/04/13 00:05:11;;;;;;;2.63;1.40;;;16.80;54.40;;;;;;5036270;28;20500;-86
2022/04/13 00:07:37;;;;;;;3.60;1.40;;;16.80;54.50;;;;;;5031596;28;20629;-86
2022/04/13 00:10:05;;;;;;;2.40;1.37;;;16.80;54.70;;;;;;5042232;28;20103;-86
2022/04/13 00:12:30;;;;;;;2.58;1.33;;;16.80;54.80;;;;;;5055676;28;20033;-86
2022/04/13 00:14:56;;;;;;;3.85;1.55;;;16.90;54.80;;;;;;5046782;28;20037;-86
2022/04/13 00:17:22;;;;;;;3.10;1.40;;;16.90;54.90;;;;;;5040545;28;20115;-85
2022/04/13 00:19:48;;;;;;;2.67;1.42;;;16.90;55.00;;;;;;5049527;28;20578;-85
2022/04/13 00:22:13;;;;;;;3.37;1.40;;;17.00;55.10;;;;;;5022015;28;20078;-86
2022/04/13 00:24:39;;;;;;;2.50;1.30;;;16.90;55.00;;;;;;5052686;28;20197;-85
2022/04/13 00:27:05;;;;;;;2.80;1.40;;;16.90;55.10;;;;;;5046250;28;20040;-86
2022/04/13 00:29:30;;;;;;;3.65;1.50;;;16.90;55.10;;;;;;5048284;28;20039;-85
2022/04/13 00:31:59;;;;;;;4.63;1.70;;;16.90;55.20;;;;;;5047360;28;20310;-85
2022/04/13 00:34:26;;;;;;;3.78;1.50;;;16.90;55.60;;;;;;5046835;28;20379;-85
2022/04/13 00:36:51;;;;;;;4.35;1.90;;;16.90;55.30;;;;;;5040495;28;20088;-84
2022/04/13 00:39:17;;;;;;;4.67;1.53;;;16.90;55.20;;;;;;5034736;28;20075;-84
2022/04/13 00:41:42;;;;;;;2.47;1.48;;;16.90;55.20;;;;;;5039956;28;20032;-84
2022/04/13 00:44:10;;;;;;;3.10;1.50;;;16.90;55.30;;;;;;5047183;28;20040;-85
2022/04/13 00:46:36;;;;;;;4.28;1.50;;;16.80;55.40;;;;;;5048897;28;20175;-84
2022/04/13 00:49:04;;;;;;;3.78;1.50;;;16.80;55.30;;;;;;5041439;28;20497;-84
2022/04/13 00:51:30;;;;;;;4.60;1.70;;;16.80;55.50;;;;;;5052263;28;20051;-84
2022/04/13 00:53:57;;;;;;;4.50;1.33;;;16.70;55.40;;;;;;5036395;28;20589;-84
2022/04/13 00:56:25;;;;;;;4.85;1.80;;;16.60;55.50;;;;;;5042311;28;20377;-85
2022/04/13 00:59:10;;;;;;;3.08;1.58;;;16.60;55.60;;;;;;5053532;28;20305;-84
2022/04/13 01:01:42;;;;;;;3.70;1.50;;;16.50;57.90;;;;;;5050148;28;20406;-84
2022/04/13 01:04:11;;;;;;;3.10;1.60;;;16.50;56.30;;;;;;5035925;28;20033;-84
2022/04/13 01:06:39;;;;;;;4.72;1.75;;;16.40;56.20;;;;;;5062201;28;20094;-84
2022/04/13 01:09:05;;;;;;;4.35;1.55;;;16.40;56.00;;;;;;5031843;28;20036;-84
2022/04/13 01:11:31;;;;;;;3.88;1.50;;;16.30;56.00;;;;;;5047976;28;20139;-84
2022/04/13 01:13:57;;;;;;;3.13;1.50;;;16.30;56.10;;;;;;5042127;28;20040;-84
2022/04/13 01:16:26;;;;;;;2.50;1.40;;;16.20;56.30;;;;;;5047116;28;20412;-84
2022/04/13 01:18:53;;;;;;;5.78;1.90;;;16.20;56.80;;;;;;5049659;28;20112;-84
2022/04/13 01:21:34;;;;;;;3.45;1.40;;;16.10;56.50;;;;;;5056031;28;20036;-84
2022/04/13 01:24:02;;;;;;;3.65;1.48;;;16.10;56.60;;;;;;5030861;28;20045;-84
2022/04/13 01:26:28;;;;;;;2.75;1.40;;;16.00;56.80;;;;;;5044300;28;20145;-84
2022/04/13 01:28:53;;;;;;;4.33;1.80;;;16.00;56.70;;;;;;5049732;28;20032;-84
2022/04/13 01:31:19;;;;;;;4.17;1.50;;;15.90;56.80;;;;;;5049125;28;20556;-84
2022/04/13 01:33:44;;;;;;;3.60;1.63;;;15.80;56.90;;;;;;5045984;28;20045;-84
2022/04/13 01:36:10;;;;;;;4.43;1.50;;;15.80;57.00;;;;;;5038728;28;20025;-84
2022/04/13 01:38:36;;;;;;;2.97;1.50;;;15.80;57.20;;;;;;5036458;28;20032;-84
2022/04/13 01:41:01;;;;;;;3.20;1.43;;;15.80;57.30;;;;;;5048158;28;20032;-84
2022/04/13 01:43:27;;;;;;;2.30;1.43;;;15.70;57.40;;;;;;5045373;28;20113;-85
2022/04/13 01:45:54;;;;;;;4.80;1.52;;;15.70;57.60;;;;;;5043556;28;20052;-85
2022/04/13 01:48:20;;;;;;;2.53;1.30;;;15.70;57.70;;;;;;5050730;28;20309;-84
2022/04/13 01:50:45;;;;;;;4.57;1.57;;;15.60;57.70;;;;;;5060933;28;20734;-84
2022/04/13 01:53:11;;;;;;;2.33;1.33;;;15.60;57.90;;;;;;5030892;28;20533;-84
2022/04/13 01:55:37;;;;;;;4.03;1.67;;;15.60;58.00;;;;;;5052737;28;20283;-84
2022/04/13 01:58:03;;;;;;;3.13;1.63;;;15.60;58.10;;;;;;5034039;28;20025;-84
2022/04/13 02:00:29;;;;;;;2.67;1.50;;;15.60;58.10;;;;;;5034940;28;20225;-84
2022/04/13 02:02:54;;;;;;;3.93;1.70;;;15.60;58.20;;;;;;5047807;28;20366;-84
2022/04/13 02:05:23;;;;;;;5.37;1.70;;;15.50;58.30;;;;;;5041419;28;20501;-84
2022/04/13 02:07:48;;;;;;;2.50;1.45;;;15.50;58.80;;;;;;5043004;28;20527;-84
2022/04/13 02:10:14;;;;;;;2.78;1.50;;;15.50;58.40;;;;;;5033755;28;20404;-85
2022/04/13 02:12:41;;;;;;;3.27;1.40;;;15.50;58.50;;;;;;5043219;28;20045;-84
2022/04/13 02:15:07;;;;;;;3.72;1.60;;;15.40;58.60;;;;;;5042340;28;20132;-84
2022/04/13 02:17:33;;;;;;;3.35;1.60;;;15.40;58.60;;;;;;5042365;28;20040;-84
2022/04/13 02:19:59;;;;;;;2.50;1.57;;;15.40;58.70;;;;;;5053333;28;20470;-85
2022/04/13 02:22:24;;;;;;;3.53;1.47;;;15.40;58.80;;;;;;5042947;28;20339;-84
2022/04/13 02:24:50;;;;;;;5.15;1.73;;;15.40;58.80;;;;;;5038022;28;20029;-84
2022/04/13 02:27:16;;;;;;;4.80;1.50;;;15.30;58.80;;;;;;5039314;28;20319;-84
2022/04/13 02:29:44;;;;;;;2.90;1.60;;;15.30;58.80;;;;;;5048294;28;20028;-84
2022/04/13 02:32:10;;;;;;;2.25;1.27;;;15.20;58.80;;;;;;5036424;28;20588;-84
2022/04/13 02:34:36;;;;;;;2.60;1.33;;;15.20;58.80;;;;;;5049046;28;20025;-84
2022/04/13 02:37:01;;;;;;;3.90;1.63;;;15.10;58.80;;;;;;5043735;28;20036;-84
2022/04/13 02:39:27;;;;;;;3.17;1.50;;;15.10;58.90;;;;;;5044917;28;20375;-84
2022/04/13 02:41:53;;;;;;;3.63;1.55;;;15.00;58.90;;;;;;5049549;28;20037;-84
2022/04/13 02:44:18;;;;;;;2.87;1.40;;;15.00;58.90;;;;;;5041775;28;20043;-84
2022/04/13 02:46:44;;;;;;;3.03;1.50;;;14.90;59.00;;;;;;5049748;28;20094;-84
2022/04/13 02:49:11;;;;;;;2.70;1.40;;;14.80;59.10;;;;;;5034587;28;20071;-84
2022/04/13 02:51:37;;;;;;;5.35;1.60;;;14.80;59.30;;;;;;5050673;28;20127;-84
2022/04/13 02:54:03;;;;;;;3.70;1.73;;;14.70;59.40;;;;;;5041093;28;20052;-84
2022/04/13 02:56:28;;;;;;;3.13;1.53;;;14.70;59.60;;;;;;5028453;28;20037;-84
2022/04/13 02:58:54;;;;;;;2.42;1.50;;;14.70;59.70;;;;;;5044861;28;20050;-84
2022/04/13 03:01:19;;;;;;;2.80;1.73;;;14.70;59.80;;;;;;5044998;28;20035;-84
2022/04/13 03:03:45;;;;;;;2.92;1.52;;;14.60;59.80;;;;;;5039408;28;20059;-84
2022/04/13 03:06:10;;;;;;;3.17;1.60;;;14.70;60.00;;;;;;5048079;28;20059;-84
2022/04/13 03:08:36;;;;;;;3.03;1.63;;;14.60;60.00;;;;;;5040266;28;20331;-85
2022/04/13 03:11:03;;;;;;;3.33;1.80;;;14.60;60.10;;;;;;5048926;28;20032;-84
2022/04/13 03:13:28;;;;;;;3.63;1.80;;;14.60;60.10;;;;;;5041480;28;20485;-84
2022/04/13 03:15:54;;;;;;;2.87;1.50;;;14.60;60.20;;;;;;5050001;28;20024;-85
2022/04/13 03:18:19;;;;;;;3.33;1.50;;;14.50;60.10;;;;;;5046129;28;20040;-84
2022/04/13 03:20:45;;;;;;;2.20;1.60;;;14.50;60.20;;;;;;5042010;28;20071;-84
2022/04/13 03:23:11;;;;;;;3.87;1.63;;;14.50;60.20;;;;;;5039155;28;20052;-84
2022/04/13 03:25:36;;;;;;;2.03;1.60;;;14.40;60.20;;;;;;5059019;28;20206;-84
2022/04/13 03:28:02;;;;;;;2.80;1.60;;;14.40;61.20;;;;;;5035593;28;20036;-85
2022/04/13 03:30:28;;;;;;;2.92;1.50;;;14.40;60.50;;;;;;5040763;28;20404;-84
2022/04/13 03:32:53;;;;;;;3.67;1.70;;;14.40;60.80;;;;;;5050709;28;20032;-84
2022/04/13 03:35:19;;;;;;;2.92;1.70;;;14.30;60.90;;;;;;5037196;28;20064;-84
2022/04/13 03:37:45;;;;;;;4.63;1.70;;;14.30;61.10;;;;;;5048361;28;20068;-84
2022/04/13 03:40:12;;;;;;;3.03;1.73;;;14.30;61.30;;;;;;5038454;28;20036;-84
2022/04/13 03:42:39;;;;;;;5.20;1.70;;;14.30;61.70;;;;;;5032434;28;21036;-84
2022/04/13 03:45:07;;;;;;;2.55;1.45;;;14.40;61.80;;;;;;5045165;28;20028;-84
2022/04/13 03:47:33;;;;;;;2.40;1.33;;;14.40;61.90;;;;;;5063362;28;20250;-84
2022/04/13 03:49:59;;;;;;;2.42;1.65;;;14.40;61.80;;;;;;5048761;28;20048;-84
2022/04/13 03:52:25;;;;;;;3.00;1.70;;;14.40;61.80;;;;;;5039573;28;20290;-84
2022/04/13 03:54:51;;;;;;;3.50;1.87;;;14.40;62.00;;;;;;5039806;28;20392;-84
2022/04/13 03:57:17;;;;;;;3.08;1.63;;;14.40;61.90;;;;;;5052833;28;20153;-84
2022/04/13 03:59:42;;;;;;;4.25;1.83;;;14.40;62.00;;;;;;5028988;28;20720;-84
2022/04/13 04:02:08;;;;;;;2.77;1.60;;;14.50;62.90;;;;;;5055747;28;20093;-84
2022/04/13 04:04:34;;;;;;;3.00;1.77;;;14.50;62.20;;;;;;5051565;28;20696;-84
2022/04/13 04:06:59;;;;;;;3.63;1.80;;;14.50;62.30;;;;;;5041712;28;20036;-84
2022/04/13 04:09:25;;;;;;;2.65;1.77;;;14.50;62.50;;;;;;5041897;28;20029;-84
2022/04/13 04:11:51;;;;;;;3.63;1.73;;;14.50;62.40;;;;;;5052587;28;20256;-83
2022/04/13 04:14:16;;;;;;;3.40;1.95;;;14.50;62.40;;;;;;5035601;28;20477;-83
2022/04/13 04:16:42;;;;;;;4.47;1.97;;;14.50;62.50;;;;;;5052730;28;20454;-83
2022/04/13 04:19:08;;;;;;;4.10;1.83;;;14.50;62.50;;;;;;5055694;28;20036;-84
2022/04/13 04:21:34;;;;;;;3.33;1.98;;;14.60;62.70;;;;;;5041678;28;20475;-84
2022/04/13 04:24:00;;;;;;;4.27;2.27;;;14.60;62.70;;;;;;5052203;28;20047;-84
2022/04/13 04:26:25;;;;;;;3.85;2.17;;;14.60;62.80;;;;;;5040580;28;20020;-84
2022/04/13 04:28:51;;;;;;;3.80;1.87;;;14.60;62.90;;;;;;5053915;28;20570;-84
2022/04/13 04:31:49;;;;;;;3.83;2.20;;;14.60;62.90;;;;;;5026297;28;20345;-84
2022/04/13 04:34:02;;;;;;;3.60;1.80;;;14.60;63.00;;;;;;5050259;28;20520;-85
2022/04/13 04:36:28;;;;;;;3.58;2.10;;;14.60;62.90;;;;;;5049222;28;20032;-84
2022/04/13 04:38:53;;;;;;;3.70;1.80;;;14.60;63.50;;;;;;5058496;28;20450;-84
2022/04/13 04:41:19;;;;;;;2.90;2.03;;;14.70;63.20;;;;;;5040912;28;20031;-84
2022/04/13 04:43:45;;;;;;;3.77;1.90;;;14.70;63.20;;;;;;5051974;28;20153;-84
2022/04/13 04:46:12;;;;;;;3.65;1.90;;;14.70;63.30;;;;;;5038593;28;20432;-85
2022/04/13 04:48:42;;;;;;;3.17;1.83;;;14.70;63.40;;;;;;5049405;28;20043;-84
2022/04/13 04:51:08;;;;;;;3.95;1.95;;;14.70;63.50;;;;;;5053510;28;20747;-84
2022/04/13 04:53:34;;;;;;;3.22;1.90;;;14.70;63.50;;;;;;5032325;28;20048;-84
2022/04/13 04:55:59;;;;;;;2.03;1.50;;;14.70;63.50;;;;;;5060417;28;20629;-84
2022/04/13 04:58:26;;;;;;;4.90;2.17;;;14.70;63.40;;;;;;5051621;28;20102;-84
2022/04/13 05:00:52;;;;;;;3.72;2.08;;;14.70;63.30;;;;;;5022979;28;20116;-84
2022/04/13 05:03:18;;;;;;;3.27;1.87;;;14.70;64.10;;;;;;5040632;28;20035;-85
2022/04/13 05:05:43;;;;;;;3.47;1.85;;;14.70;63.30;;;;;;5039317;28;20320;-84
2022/04/13 05:08:09;;;;;;;3.30;2.00;;;14.60;63.20;;;;;;5033001;28;20418;-84
2022/04/13 05:10:35;;;;;;;2.92;1.90;;;14.60;63.30;;;;;;5054621;28;20415;-84
2022/04/13 05:13:02;;;;;;;3.47;1.77;;;14.60;63.40;;;;;;5042140;28;20256;-84
2022/04/13 05:15:28;;;;;;;2.92;1.60;;;14.60;63.40;;;;;;5051460;28;20032;-84
2022/04/13 05:17:54;;;;;;;3.22;1.60;;;14.50;63.50;;;;;;5034444;28;20464;-84
2022/04/13 05:20:20;;;;;;;3.65;1.85;;;14.50;63.60;;;;;;5041463;28;20036;-84
2022/04/13 05:22:45;;;;;;;2.70;1.80;;;14.50;63.80;;;;;;5039413;28;20044;-83
2022/04/13 05:25:14;;;;;;;3.17;1.67;;;14.50;64.00;;;;;;5044125;28;20238;-83
2022/04/13 05:27:40;;;;;;;2.80;1.67;;;14.50;64.30;;;;;;5041327;28;20043;-85
2022/04/13 05:30:07;;;;;;;3.37;1.97;;;14.50;64.40;;;;;;5045942;28;20041;-84
2022/04/13 05:32:48;;;;;;;3.40;2.05;;;14.50;64.50;;;;;;5044037;28;20051;-84
2022/04/13 05:35:14;;;;;;;5.38;1.88;;;14.50;65.90;;;;;;5041808;28;20283;-84
2022/04/13 05:37:40;;;;;;;3.67;2.10;;;14.60;64.60;;;;;;5036318;28;20044;-83
2022/04/13 05:40:06;;;;;;;3.03;1.90;;;14.60;64.60;;;;;;5034044;28;20123;-83
2022/04/13 05:42:32;;;;;;;3.75;2.17;;;14.60;64.80;;;;;;5044288;28;20040;-83
2022/04/13 05:44:58;;;;;;;4.03;1.87;;;14.60;64.80;;;;;;5031502;28;20587;-84
2022/04/13 05:47:24;;;;;;;3.85;2.00;;;14.70;65.00;;;;;;5052649;28;20104;-85
2022/04/13 05:49:50;;;;;;;4.30;2.05;;;14.70;65.00;;;;;;5026336;28;20449;-84
2022/04/13 05:52:16;;;;;;;3.95;2.13;;;14.70;65.10;;;;;;5038116;28;20140;-84
2022/04/13 05:54:42;;;;;;;3.50;1.93;;;14.80;65.20;;;;;;5047174;28;20040;-83
2022/04/13 05:57:08;;;;;;;4.32;2.22;;;14.80;65.20;;;;;;5035557;28;20197;-84
2022/04/13 05:59:34;;;;;;;4.72;2.20;;;14.80;65.20;;;;;;5038082;28;20033;-83
2022/04/13 06:02:01;;;;;;;5.97;2.10;;;14.80;65.40;;;;;;5036598;28;20101;-84
2022/04/13 06:04:27;;;;;;;4.85;2.10;;;14.90;65.40;;;;;;5029969;28;20032;-84
2022/04/13 06:06:54;;;;;;;4.10;2.08;;;15.00;65.60;;;;;;5033180;28;20041;-84
2022/04/13 06:09:22;;;;;;;4.20;2.17;;;15.00;65.80;;;;;;5044072;28;20029;-84
2022/04/13 06:11:50;;;;;;;3.65;2.17;;;15.00;65.90;;;;;;5030530;28;20558;-84
2022/04/13 06:14:16;;;;;;;4.53;2.22;;;15.10;65.90;;;;;;5035345;28;20040;-84
2022/04/13 06:16:42;;;;;;;4.45;2.22;;;15.20;66.00;;;;;;5034286;28;20058;-84
2022/04/13 06:19:08;;;;;;;3.13;1.92;;;15.20;65.90;;;;;;5043786;28;20043;-84
2022/04/13 06:21:34;;;;;;;3.70;2.10;;;15.30;65.90;;;;;;5026637;28;20068;-84
2022/04/13 06:24:00;;;;;;;4.47;2.30;;;15.30;65.90;;;;;;5034028;28;20028;-83
2022/04/13 06:26:26;;;;;;;3.60;2.30;;;15.30;65.80;;;;;;5034975;28;20067;-84
2022/04/13 06:28:52;;;;;;;4.60;2.33;;;15.30;65.70;;;;;;5060492;28;20520;-84
2022/04/13 06:31:21;;;;;;;3.97;2.28;;;15.40;65.90;;;;;;5048240;28;20062;-84
2022/04/13 06:33:48;;;;;;;10.95;3.28;;;15.40;66.10;;;;;;5042258;28;20028;-84
2022/04/13 06:36:14;;;;;;;6.35;2.67;;;15.40;66.20;;;;;;5025877;28;20110;-84
2022/04/13 06:38:40;;;;;;;5.13;2.30;;;15.50;66.30;;;;;;5044027;28;20143;-84
2022/04/13 06:41:10;;;;;;;5.15;2.35;;;15.50;66.70;;;;;;5028302;28;20032;-83
2022/04/13 06:43:36;;;;;;;4.40;2.25;;;15.60;66.80;;;;;;5022496;28;20029;-83
2022/04/13 06:46:02;;;;;;;4.10;2.33;;;15.60;66.40;;;;;;5030636;28;20202;-84
2022/04/13 06:48:27;;;;;;;5.03;2.33;;;15.70;66.70;;;;;;5039314;28;20040;-83
2022/04/13 06:50:53;;;;;;;4.35;2.60;;;15.70;66.80;;;;;;5015771;28;20463;-84
2022/04/13 06:53:19;;;;;;;5.17;2.57;;;15.70;67.00;;;;;;5049521;28;20523;-84
2022/04/13 06:55:47;;;;;;;5.22;2.55;;;15.80;67.20;;;;;;5033234;28;20048;-84
2022/04/13 06:58:13;;;;;;;5.57;3.00;;;15.90;67.30;;;;;;5036138;28;20140;-84
2022/04/13 07:00:39;;;;;;;4.72;2.65;;;16.00;67.30;;;;;;5044113;28;20484;-84
2022/04/13 07:03:05;;;;;;;4.83;2.27;;;16.10;67.30;;;;;;5022611;28;20238;-84
2022/04/13 07:05:31;;;;;;;6.60;2.75;;;16.20;67.50;;;;;;5042643;28;20290;-84
2022/04/13 07:07:58;;;;;;;5.65;2.75;;;16.30;67.70;;;;;;5011919;28;20833;-84
2022/04/13 07:10:26;;;;;;;5.23;2.60;;;16.40;67.80;;;;;;5033841;28;20548;-84
2022/04/13 07:12:52;;;;;;;5.30;2.60;;;16.50;67.80;;;;;;5045921;28;20458;-84
2022/04/13 07:15:18;;;;;;;5.63;2.83;;;16.60;67.70;;;;;;5038843;28;20044;-84
2022/04/13 07:17:45;;;;;;;5.20;3.00;;;16.70;67.40;;;;;;5036726;28;20075;-84
2022/04/13 07:20:12;;;;;;;6.72;3.10;;;16.80;67.30;;;;;;5046694;28;20269;-84
2022/04/13 07:22:47;;;;;;;6.87;3.13;;;16.80;67.20;;;;;;5018937;28;20064;-85
2022/04/13 07:25:14;;;;;;;5.40;3.05;;;16.90;67.70;;;;;;5016005;28;20277;-85
2022/04/13 07:27:40;;;;;;;5.07;3.17;;;16.90;67.00;;;;;;5041331;28;20036;-84
2022/04/13 07:30:06;;;;;;;5.72;3.03;;;17.00;67.10;;;;;;5035459;28;20062;-84
2022/04/13 07:32:32;;;;;;;6.85;3.20;;;17.10;67.30;;;;;;5032838;28;20093;-84
2022/04/13 07:35:02;;;;;;;6.93;3.20;;;17.10;67.20;;;;;;5039092;28;20371;-84
2022/04/13 07:37:28;;;;;;;6.97;2.90;;;17.20;67.40;;;;;;5032323;28;20062;-84
2022/04/13 07:39:54;;;;;;;10.07;3.42;;;17.30;67.50;;;;;;5031223;28;20356;-84
2022/04/13 07:42:21;;;;;;;5.97;3.37;;;17.30;67.40;;;;;;5042759;28;20331;-84
2022/04/13 07:44:47;;;;;;;6.63;3.40;;;17.40;67.40;;;;;;5042993;28;20039;-84
2022/04/13 07:47:14;;;;;;;5.38;3.10;;;17.50;67.50;;;;;;5033152;28;20233;-84
2022/04/13 07:49:41;;;;;;;6.77;3.33;;;17.50;67.30;;;;;;5037639;28;20083;-84
2022/04/13 07:52:07;;;;;;;5.38;3.13;;;17.60;67.10;;;;;;5026795;28;20261;-84
2022/04/13 07:54:33;;;;;;;6.03;3.40;;;17.70;67.00;;;;;;5045974;28;20028;-84
2022/04/13 07:56:59;;;;;;;6.68;3.10;;;17.70;66.80;;;;;;5031166;28;20037;-84
2022/04/13 07:59:25;;;;;;;6.27;3.13;;;17.70;67.50;;;;;;5049404;28;20389;-84
2022/04/13 08:01:51;;;;;;;5.63;3.00;;;17.70;66.70;;;;;;5037027;28;20082;-84
2022/04/13 08:04:16;;;;;;;7.20;3.30;;;17.80;66.70;;;;;;5039380;28;20356;-84
2022/04/13 08:06:42;;;;;;;5.80;2.93;;;17.80;67.30;;;;;;5040299;28;20032;-84
2022/04/13 08:09:08;;;;;;;5.05;2.95;;;17.80;67.00;;;;;;5033927;28;20500;-84
2022/04/13 08:11:33;;;;;;;5.13;3.30;;;17.80;66.70;;;;;;5036086;28;20944;-84
2022/04/13 08:13:59;;;;;;;5.40;3.00;;;17.80;66.80;;;;;;5047620;28;20249;-84
2022/04/13 08:16:24;;;;;;;5.70;2.95;;;17.90;66.90;;;;;;5045282;28;20029;-85
2022/04/13 08:18:50;;;;;;;8.40;3.27;;;17.90;67.00;;;;;;5026443;28;20040;-84
2022/04/13 08:21:16;;;;;;;6.32;3.13;;;17.90;67.00;;;;;;5042939;28;20216;-85
2022/04/13 08:23:42;;;;;;;5.93;3.20;;;18.00;67.00;;;;;;5031973;28;20700;-84
2022/04/13 08:26:08;;;;;;;5.07;3.15;;;18.00;66.80;;;;;;5031404;28;20741;-84
2022/04/13 08:28:34;;;;;;;6.40;3.38;;;18.00;66.60;;;;;;5037576;28;20052;-84
2022/04/13 08:31:02;;;;;;;5.93;3.10;;;18.00;66.50;;;;;;5040858;28;20129;-85
2022/04/13 08:33:27;;;;;;;5.95;3.13;;;18.00;66.50;;;;;;5032275;28;20038;-84
2022/04/13 08:35:53;;;;;;;7.18;3.13;;;18.00;66.50;;;;;;5028484;28;20036;-84
2022/04/13 08:38:19;;;;;;;5.63;3.20;;;18.00;66.50;;;;;;5028196;28;20072;-84
2022/04/13 08:41:29;;;;;;;4.95;3.20;;;17.90;66.40;;;;;;5049718;28;20160;-83
2022/04/13 08:44:16;;;;;;;6.27;3.10;;;17.90;67.50;;;;;;5033575;28;20115;-84
2022/04/13 08:46:44;;;;;;;6.07;3.30;;;17.90;67.30;;;;;;5036873;28;20040;-84
2022/04/13 08:49:12;;;;;;;6.70;3.65;;;17.80;66.30;;;;;;5033855;28;20602;-83
2022/04/13 08:51:39;;;;;;;5.93;3.47;;;17.70;66.20;;;;;;5048619;28;20238;-84
2022/04/13 08:54:17;;;;;;;5.95;3.55;;;17.70;66.50;;;;;;5023610;28;20523;-83
2022/04/13 08:56:47;;;;;;;6.53;3.40;;;17.70;67.60;;;;;;5043943;28;20039;-82
2022/04/13 08:59:26;;;;;;;7.07;3.42;;;17.60;67.20;;;;;;5038364;28;20481;-83
2022/04/13 09:02:03;;;;;;;6.07;3.47;;;17.60;67.60;;;;;;5047214;28;20048;-84
2022/04/13 09:04:35;;;;;;;6.55;3.35;;;17.60;67.30;;;;;;5023981;28;20153;-83
2022/04/13 09:07:03;;;;;;;7.95;3.42;;;17.60;67.80;;;;;;5050969;28;20185;-83
2022/04/13 09:09:43;;;;;;;6.80;3.33;;;17.60;67.90;;;;;;5025125;28;20090;-83
2022/04/13 09:12:10;;;;;;;8.02;3.70;;;17.70;68.50;;;;;;5046400;28;20256;-83
2022/04/13 09:14:38;;;;;;;7.15;3.60;;;17.60;67.90;;;;;;5051636;28;20386;-83
2022/04/13 09:17:05;;;;;;;6.32;3.40;;;17.70;68.00;;;;;;5046358;28;20518;-83
2022/04/13 09:19:32;;;;;;;5.72;3.45;;;17.70;67.80;;;;;;5036955;28;20584;-83
2022/04/13 09:21:59;;;;;;;6.20;3.60;;;17.70;67.90;;;;;;5040570;28;20032;-84
2022/04/13 09:24:26;;;;;;;5.25;3.40;;;17.70;68.00;;;;;;5032117;28;20083;-84
2022/04/13 09:26:52;;;;;;;8.18;3.67;;;17.80;68.40;;;;;;5049641;28;20091;-83
2022/04/13 09:29:18;;;;;;;5.50;3.35;;;17.80;68.20;;;;;;5035266;28;20049;-84
2022/04/13 09:31:45;;;;;;;5.87;3.70;;;17.80;68.10;;;;;;5047764;28;20043;-84
2022/04/13 09:34:11;;;;;;;8.02;3.40;;;17.80;68.10;;;;;;5040409;28;20044;-83
2022/04/13 09:36:37;;;;;;;10.35;3.65;;;17.90;68.10;;;;;;5032269;28;20413;-83
2022/04/13 09:39:03;;;;;;;5.87;3.43;;;17.90;68.00;;;;;;5048543;28;20520;-85
2022/04/13 09:41:33;;;;;;;7.93;3.50;;;17.90;68.00;;;;;;5034640;28;20033;-84
2022/04/13 09:43:59;;;;;;;7.03;3.30;;;17.90;68.50;;;;;;5038332;28;20108;-84
2022/04/13 09:46:30;;;;;;;6.28;3.30;;;17.90;68.10;;;;;;5044454;28;20115;-84
2022/04/13 09:49:16;;;;;;;6.80;3.60;;;17.90;68.80;;;;;;5041960;28;20029;-83
2022/04/13 09:51:50;;;;;;;7.50;3.67;;;18.00;69.90;;;;;;5037462;28;20274;-83
2022/04/13 09:54:16;;;;;;;7.63;3.42;;;17.90;68.50;;;;;;5031355;28;20109;-83
2022/04/13 09:56:49;;;;;;;6.78;3.33;;;17.90;68.10;;;;;;5047920;28;20032;-83
2022/04/13 09:59:31;;;;;;;8.98;3.67;;;17.90;68.80;;;;;;5048969;28;20442;-83
2022/04/13 10:01:58;;;;;;;7.90;3.37;;;17.90;69.80;;;;;;5052917;28;20036;-83
2022/04/13 10:04:23;;;;;;;8.30;3.70;;;17.90;68.60;;;;;;5034618;28;20055;-84
2022/04/13 10:06:49;;;;;;;6.70;3.63;;;17.90;68.80;;;;;;5040709;28;20032;-83
2022/04/13 10:09:15;;;;;;;4.83;3.20;;;17.90;69.00;;;;;;5046783;28;20085;-83
2022/04/13 10:12:02;;;;;;;9.38;3.80;;;18.00;69.00;;;;;;5033072;28;20073;-83
2022/04/13 10:14:28;;;;;;;8.90;3.70;;;18.00;71.00;;;;;;5034179;28;20780;-83
2022/04/13 10:16:56;;;;;;;7.00;3.60;;;18.00;68.80;;;;;;5050869;28;20025;-83
2022/04/13 10:19:22;;;;;;;7.68;3.80;;;18.10;68.60;;;;;;5043233;28;20665;-83
2022/04/13 10:21:51;;;;;;;6.57;3.50;;;18.00;68.50;;;;;;5037142;28;20078;-83
2022/04/13 10:24:22;;;;;;;7.70;3.80;;;18.00;68.60;;;;;;5032726;28;20055;-84
2022/04/13 10:27:04;;;;;;;7.57;3.50;;;18.00;68.60;;;;;;5023560;28;20036;-84
2022/04/13 10:29:35;;;;;;;7.93;3.33;;;18.00;69.90;;;;;;5054138;28;20036;-83
2022/04/13 10:32:08;;;;;;;6.82;3.55;;;17.90;68.80;;;;;;5029974;28;20031;-83
2022/04/13 10:34:41;;;;;;;5.10;3.10;;;17.80;69.40;;;;;;5050177;28;20063;-83
2022/04/13 10:37:09;;;;;;;5.43;3.13;;;17.80;69.30;;;;;;5039279;28;20627;-84
2022/04/13 10:39:35;;;;;;;6.30;3.40;;;17.80;68.70;;;;;;5041511;28;20020;-84
2022/04/13 10:42:15;;;;;;;6.97;3.60;;;17.70;68.70;;;;;;5036997;28;20203;-83
2022/04/13 10:44:51;;;;;;;6.70;3.35;;;17.70;69.20;;;;;;5049556;28;20116;-84
2022/04/13 10:47:48;;;;;;;5.30;3.47;;;17.60;69.90;;;;;;5034805;28;20037;-84
2022/04/13 10:50:16;;;;;;;5.73;3.37;;;17.60;70.60;;;;;;5054268;28;20036;-84
2022/04/13 10:53:02;;;;;;;8.65;3.90;;;17.60;69.30;;;;;;5038922;28;20036;-84
2022/04/13 10:55:30;;;;;;;7.47;3.63;;;17.60;71.00;;;;;;5043852;28;20034;-84
2022/04/13 10:58:33;;;;;;;6.70;3.60;;;17.50;69.50;;;;;;5033796;28;20675;-85
2022/04/13 11:01:04;;;;;;;5.75;3.42;;;17.60;71.80;;;;;;5043724;28;20597;-85
2022/04/13 11:03:35;;;;;;;6.80;3.70;;;17.60;70.40;;;;;;5049054;28;20031;-85
2022/04/13 11:06:04;;;;;;;6.22;3.90;;;17.60;70.30;;;;;;5053672;28;23158;-84
2022/04/13 11:08:57;;;;;;;8.63;4.05;;;17.60;70.30;;;;;;5042218;28;20050;-84
2022/04/13 11:11:26;;;;;;;6.85;3.72;;;17.60;71.00;;;;;;5039136;28;20125;-84
2022/04/13 11:13:52;;;;;;;7.18;3.80;;;17.70;70.50;;;;;;5035615;28;20098;-84
2022/04/13 11:16:22;;;;;;;7.87;3.73;;;17.70;70.60;;;;;;5037084;28;20040;-84
2022/04/13 11:19:06;;;;;;;6.07;3.85;;;17.70;70.60;;;;;;5033091;28;20222;-83
2022/04/13 11:21:34;;;;;;;6.68;3.80;;;17.70;72.00;;;;;;5035884;28;20048;-83
2022/04/13 11:24:00;;;;;;;7.60;3.92;;;17.70;70.40;;;;;;5027591;28;20032;-83
2022/04/13 11:26:27;;;;;;;6.03;3.53;;;17.70;70.60;;;;;;5029987;28;20099;-84
2022/04/13 11:29:17;;;;;;;5.87;3.50;;;17.80;71.00;;;;;;5033141;28;21480;-83
2022/04/13 11:32:01;;;;;;;8.23;3.63;;;17.80;72.70;;;;;;5022410;28;20564;-83
2022/04/13 11:34:57;;;;;;;7.13;3.78;;;17.80;72.40;;;;;;5038234;28;20033;-83
2022/04/13 11:37:36;;;;;;;5.57;3.63;;;17.80;72.30;;;;;;5054052;28;20032;-83
2022/04/13 11:40:06;;;;;;;5.53;3.63;;;17.90;70.70;;;;;;5045749;28;20267;-83
2022/04/13 11:42:35;;;;;;;5.97;3.50;;;17.90;71.40;;;;;;5046604;28;20055;-83
2022/04/13 11:45:03;;;;;;;7.22;3.70;;;17.90;71.60;;;;;;5036580;28;21025;-82
2022/04/13 11:47:39;;;;;;;6.25;4.07;;;17.90;71.60;;;;;;5041647;28;20293;-82
2022/04/13 11:50:22;;;;;;;7.28;3.63;;;18.00;72.50;;;;;;5051561;28;20043;-82
2022/04/13 11:52:52;;;;;;;6.25;3.85;;;18.00;72.70;;;;;;5046285;28;20247;-83
2022/04/13 11:55:19;;;;;;;7.13;3.77;;;18.00;72.10;;;;;;5046068;28;20502;-83
2022/04/13 11:58:07;;;;;;;7.57;3.47;;;18.00;72.10;;;;;;5042331;28;20384;-84
2022/04/13 12:01:00;;;;;;;5.30;3.03;;;18.10;73.00;;;;;;5045203;28;20488;-84
2022/04/13 12:03:40;;;;;;;6.18;3.30;;;18.10;72.70;;;;;;5039645;28;20054;-83
2022/04/13 12:06:18;;;;;;;5.32;2.80;;;18.10;72.70;;;;;;5045193;28;20629;-84
2022/04/13 12:08:55;;;;;;;6.57;2.90;;;18.10;72.80;;;;;;5046171;28;20035;-84
2022/04/13 12:11:38;;;;;;;5.35;3.08;;;18.10;73.20;;;;;;5034432;28;20103;-84
2022/04/13 12:14:04;;;;;;;5.70;3.40;;;18.10;73.90;;;;;;5046173;28;20051;-84
2022/04/13 12:16:34;;;;;;;4.90;2.80;;;18.10;72.90;;;;;;5055002;28;20794;-84
2022/04/13 12:19:09;;;;;;;5.00;2.50;;;18.20;73.00;;;;;;5039575;28;20049;-84
2022/04/13 12:21:40;;;;;;;5.20;2.80;;;18.20;73.20;;;;;;5055086;28;20209;-84
2022/04/13 12:24:08;;;;;;;5.53;2.90;;;18.20;72.90;;;;;;5042941;28;20036;-84
2022/04/13 12:26:35;;;;;;;4.88;2.83;;;18.20;72.90;;;;;;5039362;28;20484;-84
2022/04/13 12:29:22;;;;;;;5.50;3.08;;;18.10;72.90;;;;;;5049868;28;20045;-83
2022/04/13 12:31:53;;;;;;;6.18;3.22;;;18.10;74.20;;;;;;5038473;28;20056;-83
2022/04/13 12:34:21;;;;;;;5.17;2.80;;;18.10;73.10;;;;;;5033392;28;20033;-84
2022/04/13 12:37:06;;;;;;;5.55;2.90;;;18.00;73.00;;;;;;5051036;28;20037;-83
2022/04/13 12:39:33;;;;;;;5.72;3.33;;;18.00;75.00;;;;;;5051709;28;20480;-83
2022/04/13 12:42:03;;;;;;;8.20;3.30;;;18.00;73.40;;;;;;5032088;28;20248;-82
2022/04/13 12:44:29;;;;;;;6.32;3.17;;;17.90;73.50;;;;;;5042420;28;20047;-83
2022/04/13 12:47:06;;;;;;;5.97;3.60;;;17.90;73.70;;;;;;5040667;28;20037;-82
2022/04/13 12:49:32;;;;;;;6.25;3.58;;;17.80;75.00;;;;;;5031193;28;20078;-83
2022/04/13 12:51:58;;;;;;;5.90;3.50;;;17.80;74.60;;;;;;5049483;28;20094;-83